sensor_id;sensor_type;location;lat;lon;timestamp;temperature;humidity
16970;DHT22;8601;48.718;8.992;2022-11-15T00:00:31;8.30;99.90
16970;DHT22;8601;48.718;8.992;2022-11-15T00:02:58;8.30;99.90
16970;DHT22;8601;48.718;8.992;2022-11-15T00:05:26;8.30;99.90
16970;DHT22;8601;48.718;8.992;2022-11-15T00:07:52;8.20;99.90
16970;DHT22;8601;48.718;8.992;2022-11-15T00:10:21;8.10;99.90
16970;DHT22;8601;48.718;8.992;2022-11-15T00:12:48;8.20;99.90
16970;DHT22;8601;48.718;8.992;2022-11-15T00:15:15;8.10;99.90
16970;DHT22;8601;48.718;8.992;2022-11-15T00:17:42;8.10;99.90
16970;DHT22;8601;48.718;8.992;2022-11-15T00:20:09;8.10;99.90
16970;DHT22;8601;48.718;8.992;2022-11-15T00:22:37;8.00;99.90
16970;DHT22;8601;48.718;8.992;2022-11-15T00:25:05;8.10;99.90
16970;DHT22;8601;48.718;8.992;2022-11-15T00:27:34;8.10;99.90
16970;DHT22;8601;48.718;8.992;2022-11-15T00:30:01;8.10;99.90
16970;DHT22;8601;48.718;8.992;2022-11-15T00:32:31;8.10;99.90
16970;DHT22;8601;48.718;8.992;2022-11-15T00:34:58;8.10;99.90
16970;DHT22;8601;48.718;8.992;2022-11-15T00:37:24;8.10;99.90
16970;DHT22;8601;48.718;8.992;2022-11-15T00:39:51;8.00;99.90
16970;DHT22;8601;48.718;8.992;2022-11-15T00:42:19;8.00;99.90
16970;DHT22;8601;48.718;8.992;2022-11-15T00:44:47;8.00;99.90
16970;DHT22;8601;48.718;8.992;2022-11-15T00:47:15;8.00;99.90
16970;DHT22;8601;48.718;8.992;2022-11-15T00:49:42;8.00;99.90
16970;DHT22;8601;48.718;8.992;2022-11-15T00:52:08;8.00;99.90
16970;DHT22;8601;48.718;8.992;2022-11-15T00:54:35;8.00;99.90
16970;DHT22;8601;48.718;8.992;2022-11-15T00:57:03;8.00;99.90
16970;DHT22;8601;48.718;8.992;2022-11-15T00:59:30;8.00;99.90
16970;DHT22;8601;48.718;8.992;2022-11-15T01:01:58;8.00;99.90
16970;DHT22;8601;48.718;8.992;2022-11-15T01:04:27;7.90;99.90
16970;DHT22;8601;48.718;8.992;2022-11-15T01:06:54;7.90;99.90
16970;DHT22;8601;48.718;8.992;2022-11-15T01:09:21;7.90;99.90
16970;DHT22;8601;48.718;8.992;2022-11-15T01:11:49;7.90;99.90
16970;DHT22;8601;48.718;8.992;2022-11-15T01:14:15;7.80;99.90
16970;DHT22;8601;48.718;8.992;2022-11-15T01:16:43;7.80;99.90
16970;DHT22;8601;48.718;8.992;2022-11-15T01:19:11;7.80;99.90
16970;DHT22;8601;48.718;8.992;2022-11-15T01:21:38;7.90;99.90
16970;DHT22;8601;48.718;8.992;2022-11-15T01:24:05;7.90;99.90
16970;DHT22;8601;48.718;8.992;2022-11-15T01:26:32;7.90;99.90
16970;DHT22;8601;48.718;8.992;2022-11-15T01:28:59;7.90;99.90
16970;DHT22;8601;48.718;8.992;2022-11-15T01:31:26;7.90;99.90
16970;DHT22;8601;48.718;8.992;2022-11-15T01:33:53;7.90;99.90
16970;DHT22;8601;48.718;8.992;2022-11-15T01:36:22;7.90;99.90
16970;DHT22;8601;48.718;8.992;2022-11-15T01:38:53;7.90;99.90
16970;DHT22;8601;48.718;8.992;2022-11-15T01:41:22;7.80;99.90
16970;DHT22;8601;48.718;8.992;2022-11-15T01:43:52;7.80;99.90
16970;DHT22;8601;48.718;8.992;2022-11-15T01:46:26;7.80;99.90
16970;DHT22;8601;48.718;8.992;2022-11-15T01:48:55;7.80;99.90
16970;DHT22;8601;48.718;8.992;2022-11-15T01:51:26;7.80;99.90
16970;DHT22;8601;48.718;8.992;2022-11-15T01:53:59;7.80;99.90
16970;DHT22;8601;48.718;8.992;2022-11-15T01:56:30;7.90;99.90
16970;DHT22;8601;48.718;8.992;2022-11-15T01:59:03;7.90;99.90
16970;DHT22;8601;48.718;8.992;2022-11-15T02:01:31;8.00;99.90
16970;DHT22;8601;48.718;8.992;2022-11-15T02:04:02;8.00;99.90
16970;DHT22;8601;48.718;8.992;2022-11-15T02:06:32;8.00;99.90
16970;DHT22;8601;48.718;8.992;2022-11-15T02:09:00;8.00;99.90
16970;DHT22;8601;48.718;8.992;2022-11-15T02:11:28;8.10;99.90
16970;DHT22;8601;48.718;8.992;2022-11-15T02:13:55;8.10;99.90
16970;DHT22;8601;48.718;8.992;2022-11-15T02:16:30;8.10;99.90
16970;DHT22;8601;48.718;8.992;2022-11-15T02:19:18;8.10;99.90
16970;DHT22;8601;48.718;8.992;2022-11-15T02:22:00;8.10;99.90
16970;DHT22;8601;48.718;8.992;2022-11-15T02:25:03;8.00;99.90
16970;DHT22;8601;48.718;8.992;2022-11-15T02:28:06;8.00;99.90
16970;DHT22;8601;48.718;8.992;2022-11-15T02:30:41;8.10;99.90
16970;DHT22;8601;48.718;8.992;2022-11-15T02:33:18;8.10;99.90
16970;DHT22;8601;48.718;8.992;2022-11-15T02:35:55;8.00;99.90
16970;DHT22;8601;48.718;8.992;2022-11-15T02:38:31;8.00;99.90
16970;DHT22;8601;48.718;8.992;2022-11-15T02:41:04;8.00;99.90
16970;DHT22;8601;48.718;8.992;2022-11-15T02:43:40;8.00;99.90
16970;DHT22;8601;48.718;8.992;2022-11-15T02:46:31;8.10;99.90
16970;DHT22;8601;48.718;8.992;2022-11-15T02:49:17;8.10;99.90
16970;DHT22;8601;48.718;8.992;2022-11-15T02:51:47;8.00;99.90
16970;DHT22;8601;48.718;8.992;2022-11-15T02:54:21;8.10;99.90
16970;DHT22;8601;48.718;8.992;2022-11-15T02:56:49;8.00;99.90
16970;DHT22;8601;48.718;8.992;2022-11-15T03:02:36;8.10;99.90
16970;DHT22;8601;48.718;8.992;2022-11-15T03:05:15;8.10;99.90
16970;DHT22;8601;48.718;8.992;2022-11-15T03:07:51;8.10;99.90
16970;DHT22;8601;48.718;8.992;2022-11-15T03:10:25;8.10;99.90
16970;DHT22;8601;48.718;8.992;2022-11-15T03:12:56;8.00;99.90
16970;DHT22;8601;48.718;8.992;2022-11-15T03:15:28;8.00;99.90
16970;DHT22;8601;48.718;8.992;2022-11-15T03:18:00;8.00;99.90
16970;DHT22;8601;48.718;8.992;2022-11-15T03:20:35;8.00;99.90
16970;DHT22;8601;48.718;8.992;2022-11-15T03:23:05;8.00;99.90
16970;DHT22;8601;48.718;8.992;2022-11-15T03:25:36;7.90;99.90
16970;DHT22;8601;48.718;8.992;2022-11-15T03:28:07;7.90;99.90
16970;DHT22;8601;48.718;8.992;2022-11-15T03:30:38;7.80;99.90
16970;DHT22;8601;48.718;8.992;2022-11-15T03:33:07;7.80;99.90
16970;DHT22;8601;48.718;8.992;2022-11-15T03:35:38;7.80;99.90
16970;DHT22;8601;48.718;8.992;2022-11-15T03:38:11;7.80;99.90
16970;DHT22;8601;48.718;8.992;2022-11-15T03:40:42;7.80;99.90
16970;DHT22;8601;48.718;8.992;2022-11-15T03:43:15;7.70;99.90
16970;DHT22;8601;48.718;8.992;2022-11-15T03:45:50;7.70;99.90
16970;DHT22;8601;48.718;8.992;2022-11-15T03:48:22;7.80;99.90
16970;DHT22;8601;48.718;8.992;2022-11-15T03:50:52;7.80;99.90
16970;DHT22;8601;48.718;8.992;2022-11-15T03:53:20;7.70;99.90
16970;DHT22;8601;48.718;8.992;2022-11-15T03:55:46;7.80;99.90
16970;DHT22;8601;48.718;8.992;2022-11-15T03:58:13;7.80;99.90
16970;DHT22;8601;48.718;8.992;2022-11-15T04:00:40;7.90;99.90
16970;DHT22;8601;48.718;8.992;2022-11-15T04:03:07;7.90;99.90
16970;DHT22;8601;48.718;8.992;2022-11-15T04:05:35;7.90;99.90
16970;DHT22;8601;48.718;8.992;2022-11-15T04:08:03;7.90;99.90
16970;DHT22;8601;48.718;8.992;2022-11-15T04:10:29;7.90;99.90
16970;DHT22;8601;48.718;8.992;2022-11-15T04:12:56;7.90;99.90
16970;DHT22;8601;48.718;8.992;2022-11-15T04:15:24;7.90;99.90
16970;DHT22;8601;48.718;8.992;2022-11-15T04:17:54;8.00;99.90
16970;DHT22;8601;48.718;8.992;2022-11-15T04:20:22;7.90;99.90
16970;DHT22;8601;48.718;8.992;2022-11-15T04:23:11;7.90;99.90
16970;DHT22;8601;48.718;8.992;2022-11-15T04:25:57;8.00;99.90
16970;DHT22;8601;48.718;8.992;2022-11-15T04:28:25;7.90;99.90
16970;DHT22;8601;48.718;8.992;2022-11-15T04:30:52;7.90;99.90
16970;DHT22;8601;48.718;8.992;2022-11-15T04:33:19;7.90;99.90
16970;DHT22;8601;48.718;8.992;2022-11-15T04:35:46;7.90;99.90
16970;DHT22;8601;48.718;8.992;2022-11-15T04:38:35;7.90;99.90
16970;DHT22;8601;48.718;8.992;2022-11-15T04:41:02;8.00;99.90
16970;DHT22;8601;48.718;8.992;2022-11-15T04:43:29;8.00;99.90
16970;DHT22;8601;48.718;8.992;2022-11-15T04:45:56;8.00;99.90
16970;DHT22;8601;48.718;8.992;2022-11-15T04:48:23;8.00;99.90
16970;DHT22;8601;48.718;8.992;2022-11-15T04:50:50;8.00;99.90
16970;DHT22;8601;48.718;8.992;2022-11-15T04:53:19;8.10;99.90
16970;DHT22;8601;48.718;8.992;2022-11-15T04:55:47;8.00;99.90
16970;DHT22;8601;48.718;8.992;2022-11-15T04:58:14;8.00;99.90
16970;DHT22;8601;48.718;8.992;2022-11-15T05:00:41;7.90;99.90
16970;DHT22;8601;48.718;8.992;2022-11-15T05:03:09;7.70;99.90
16970;DHT22;8601;48.718;8.992;2022-11-15T05:05:53;7.70;99.90
16970;DHT22;8601;48.718;8.992;2022-11-15T05:08:20;7.70;99.90
16970;DHT22;8601;48.718;8.992;2022-11-15T05:10:49;7.60;99.90
16970;DHT22;8601;48.718;8.992;2022-11-15T05:13:16;7.70;99.90
16970;DHT22;8601;48.718;8.992;2022-11-15T05:15:43;7.70;99.90
16970;DHT22;8601;48.718;8.992;2022-11-15T05:18:10;7.70;99.90
16970;DHT22;8601;48.718;8.992;2022-11-15T05:20:41;7.80;99.90
16970;DHT22;8601;48.718;8.992;2022-11-15T05:23:08;7.80;99.90
16970;DHT22;8601;48.718;8.992;2022-11-15T05:25:36;7.80;99.90
16970;DHT22;8601;48.718;8.992;2022-11-15T05:28:04;7.90;99.90
16970;DHT22;8601;48.718;8.992;2022-11-15T05:30:31;7.90;99.90
16970;DHT22;8601;48.718;8.992;2022-11-15T05:32:59;7.90;99.90
16970;DHT22;8601;48.718;8.992;2022-11-15T05:35:30;7.90;99.90
16970;DHT22;8601;48.718;8.992;2022-11-15T05:37:58;7.80;99.90
16970;DHT22;8601;48.718;8.992;2022-11-15T05:40:34;7.80;99.90
16970;DHT22;8601;48.718;8.992;2022-11-15T05:43:04;7.80;99.90
16970;DHT22;8601;48.718;8.992;2022-11-15T05:45:32;7.80;99.90
16970;DHT22;8601;48.718;8.992;2022-11-15T05:48:01;7.80;99.90
16970;DHT22;8601;48.718;8.992;2022-11-15T05:50:30;7.70;99.90
16970;DHT22;8601;48.718;8.992;2022-11-15T05:52:58;7.80;99.90
16970;DHT22;8601;48.718;8.992;2022-11-15T05:55:25;7.70;99.90
16970;DHT22;8601;48.718;8.992;2022-11-15T05:57:52;7.70;99.90
16970;DHT22;8601;48.718;8.992;2022-11-15T06:00:21;7.70;99.90
16970;DHT22;8601;48.718;8.992;2022-11-15T06:02:48;7.70;99.90
16970;DHT22;8601;48.718;8.992;2022-11-15T06:05:15;7.70;99.90
16970;DHT22;8601;48.718;8.992;2022-11-15T06:07:42;7.80;99.90
16970;DHT22;8601;48.718;8.992;2022-11-15T06:10:09;7.80;99.90
16970;DHT22;8601;48.718;8.992;2022-11-15T06:12:36;7.80;99.90
16970;DHT22;8601;48.718;8.992;2022-11-15T06:15:03;7.80;99.90
16970;DHT22;8601;48.718;8.992;2022-11-15T06:17:32;7.80;99.90
16970;DHT22;8601;48.718;8.992;2022-11-15T06:19:59;7.80;99.90
16970;DHT22;8601;48.718;8.992;2022-11-15T06:22:26;7.80;99.90
16970;DHT22;8601;48.718;8.992;2022-11-15T06:24:53;7.80;99.90
16970;DHT22;8601;48.718;8.992;2022-11-15T06:27:20;7.70;99.90
16970;DHT22;8601;48.718;8.992;2022-11-15T06:29:47;7.80;99.90
16970;DHT22;8601;48.718;8.992;2022-11-15T06:32:17;7.80;99.90
16970;DHT22;8601;48.718;8.992;2022-11-15T06:34:45;7.80;99.90
16970;DHT22;8601;48.718;8.992;2022-11-15T06:37:12;7.80;99.90
16970;DHT22;8601;48.718;8.992;2022-11-15T06:39:40;7.70;99.90
16970;DHT22;8601;48.718;8.992;2022-11-15T06:42:08;7.60;99.90
16970;DHT22;8601;48.718;8.992;2022-11-15T06:44:35;7.50;99.90
16970;DHT22;8601;48.718;8.992;2022-11-15T06:47:02;7.50;99.90
16970;DHT22;8601;48.718;8.992;2022-11-15T06:49:29;7.50;99.90
16970;DHT22;8601;48.718;8.992;2022-11-15T06:51:57;7.60;99.90
16970;DHT22;8601;48.718;8.992;2022-11-15T06:54:24;7.60;99.90
16970;DHT22;8601;48.718;8.992;2022-11-15T06:56:51;7.70;99.90
16970;DHT22;8601;48.718;8.992;2022-11-15T06:59:18;7.70;99.90
16970;DHT22;8601;48.718;8.992;2022-11-15T07:01:45;7.80;99.90
16970;DHT22;8601;48.718;8.992;2022-11-15T07:04:12;8.00;99.90
16970;DHT22;8601;48.718;8.992;2022-11-15T07:06:38;8.00;99.90
16970;DHT22;8601;48.718;8.992;2022-11-15T07:09:07;10.60;99.90
16970;DHT22;8601;48.718;8.992;2022-11-15T07:11:34;10.40;99.90
16970;DHT22;8601;48.718;8.992;2022-11-15T07:14:01;9.70;99.90
16970;DHT22;8601;48.718;8.992;2022-11-15T07:16:28;9.30;99.90
16970;DHT22;8601;48.718;8.992;2022-11-15T07:18:55;9.00;99.90
16970;DHT22;8601;48.718;8.992;2022-11-15T07:21:29;8.80;99.90
16970;DHT22;8601;48.718;8.992;2022-11-15T07:23:56;8.70;99.90
16970;DHT22;8601;48.718;8.992;2022-11-15T07:26:24;8.60;99.90
16970;DHT22;8601;48.718;8.992;2022-11-15T07:28:52;8.50;99.90
16970;DHT22;8601;48.718;8.992;2022-11-15T07:31:19;8.50;99.90
16970;DHT22;8601;48.718;8.992;2022-11-15T07:33:48;8.50;99.90
16970;DHT22;8601;48.718;8.992;2022-11-15T07:36:14;8.60;99.90
16970;DHT22;8601;48.718;8.992;2022-11-15T07:38:41;8.60;99.90
16970;DHT22;8601;48.718;8.992;2022-11-15T07:41:08;8.70;99.90
16970;DHT22;8601;48.718;8.992;2022-11-15T07:43:36;8.70;99.90
16970;DHT22;8601;48.718;8.992;2022-11-15T07:46:16;8.80;99.90
16970;DHT22;8601;48.718;8.992;2022-11-15T07:48:42;8.90;99.90
16970;DHT22;8601;48.718;8.992;2022-11-15T07:51:11;8.90;99.90
16970;DHT22;8601;48.718;8.992;2022-11-15T07:53:38;9.00;99.90
16970;DHT22;8601;48.718;8.992;2022-11-15T07:56:06;9.00;99.90
16970;DHT22;8601;48.718;8.992;2022-11-15T07:58:33;9.10;99.90
16970;DHT22;8601;48.718;8.992;2022-11-15T08:01:04;9.10;99.90
16970;DHT22;8601;48.718;8.992;2022-11-15T08:03:32;9.10;99.90
16970;DHT22;8601;48.718;8.992;2022-11-15T08:06:17;9.10;99.90
16970;DHT22;8601;48.718;8.992;2022-11-15T08:08:54;9.10;99.90
16970;DHT22;8601;48.718;8.992;2022-11-15T08:11:20;9.10;99.90
16970;DHT22;8601;48.718;8.992;2022-11-15T08:13:47;10.70;99.90
16970;DHT22;8601;48.718;8.992;2022-11-15T08:16:16;10.30;99.90
16970;DHT22;8601;48.718;8.992;2022-11-15T08:19:13;10.00;99.90
16970;DHT22;8601;48.718;8.992;2022-11-15T08:21:40;9.80;99.90
16970;DHT22;8601;48.718;8.992;2022-11-15T08:24:09;9.70;99.90
16970;DHT22;8601;48.718;8.992;2022-11-15T08:26:37;9.60;99.90
16970;DHT22;8601;48.718;8.992;2022-11-15T08:29:04;9.60;99.90
16970;DHT22;8601;48.718;8.992;2022-11-15T08:31:35;9.60;99.90
16970;DHT22;8601;48.718;8.992;2022-11-15T08:34:03;9.70;99.90
16970;DHT22;8601;48.718;8.992;2022-11-15T08:36:30;9.80;99.90
16970;DHT22;8601;48.718;8.992;2022-11-15T08:38:56;9.80;99.90
16970;DHT22;8601;48.718;8.992;2022-11-15T08:41:25;10.00;99.90
16970;DHT22;8601;48.718;8.992;2022-11-15T08:43:53;10.10;99.90
16970;DHT22;8601;48.718;8.992;2022-11-15T08:46:20;10.20;99.90
16970;DHT22;8601;48.718;8.992;2022-11-15T08:48:48;10.30;99.90
16970;DHT22;8601;48.718;8.992;2022-11-15T08:51:15;10.40;99.90
16970;DHT22;8601;48.718;8.992;2022-11-15T08:53:42;10.50;99.90
16970;DHT22;8601;48.718;8.992;2022-11-15T08:56:10;10.50;99.90
16970;DHT22;8601;48.718;8.992;2022-11-15T08:58:38;10.50;99.90
16970;DHT22;8601;48.718;8.992;2022-11-15T09:01:05;10.60;99.90
16970;DHT22;8601;48.718;8.992;2022-11-15T09:03:32;10.70;99.90
16970;DHT22;8601;48.718;8.992;2022-11-15T09:06:01;10.90;99.90
16970;DHT22;8601;48.718;8.992;2022-11-15T09:08:34;10.90;99.90
16970;DHT22;8601;48.718;8.992;2022-11-15T09:11:03;11.00;99.90
16970;DHT22;8601;48.718;8.992;2022-11-15T09:13:30;10.90;99.90
16970;DHT22;8601;48.718;8.992;2022-11-15T09:15:57;10.80;99.90
16970;DHT22;8601;48.718;8.992;2022-11-15T09:18:24;10.80;99.90
16970;DHT22;8601;48.718;8.992;2022-11-15T09:20:54;10.80;99.90
16970;DHT22;8601;48.718;8.992;2022-11-15T09:23:23;10.80;99.90
16970;DHT22;8601;48.718;8.992;2022-11-15T09:25:50;10.90;99.90
16970;DHT22;8601;48.718;8.992;2022-11-15T09:28:18;10.80;99.90
16970;DHT22;8601;48.718;8.992;2022-11-15T09:30:45;10.80;99.90
16970;DHT22;8601;48.718;8.992;2022-11-15T09:33:12;10.90;99.90
16970;DHT22;8601;48.718;8.992;2022-11-15T09:35:39;10.90;99.90
16970;DHT22;8601;48.718;8.992;2022-11-15T09:38:06;10.90;99.90
16970;DHT22;8601;48.718;8.992;2022-11-15T09:40:39;11.10;99.90
16970;DHT22;8601;48.718;8.992;2022-11-15T09:43:27;11.20;99.90
16970;DHT22;8601;48.718;8.992;2022-11-15T09:46:03;11.30;99.90
16970;DHT22;8601;48.718;8.992;2022-11-15T09:48:53;11.40;99.90
16970;DHT22;8601;48.718;8.992;2022-11-15T09:51:28;11.40;99.90
16970;DHT22;8601;48.718;8.992;2022-11-15T09:54:05;11.40;99.90
16970;DHT22;8601;48.718;8.992;2022-11-15T09:56:41;11.50;99.90
16970;DHT22;8601;48.718;8.992;2022-11-15T09:59:27;11.50;99.90
16970;DHT22;8601;48.718;8.992;2022-11-15T10:02:22;11.50;99.90
16970;DHT22;8601;48.718;8.992;2022-11-15T10:04:53;11.50;99.90
16970;DHT22;8601;48.718;8.992;2022-11-15T10:07:25;11.50;99.90
16970;DHT22;8601;48.718;8.992;2022-11-15T10:09:55;11.60;99.90
16970;DHT22;8601;48.718;8.992;2022-11-15T10:12:25;12.10;99.90
16970;DHT22;8601;48.718;8.992;2022-11-15T10:14:59;12.00;99.90
16970;DHT22;8601;48.718;8.992;2022-11-15T10:20:27;12.00;99.90
16970;DHT22;8601;48.718;8.992;2022-11-15T10:23:11;11.90;99.90
16970;DHT22;8601;48.718;8.992;2022-11-15T10:25:39;11.90;99.90
16970;DHT22;8601;48.718;8.992;2022-11-15T10:28:13;11.80;99.90
16970;DHT22;8601;48.718;8.992;2022-11-15T10:30:42;11.90;99.90
16970;DHT22;8601;48.718;8.992;2022-11-15T10:33:14;11.90;99.90
16970;DHT22;8601;48.718;8.992;2022-11-15T10:35:43;11.90;99.90
16970;DHT22;8601;48.718;8.992;2022-11-15T10:38:11;11.90;99.90
16970;DHT22;8601;48.718;8.992;2022-11-15T10:41:06;12.00;99.90
16970;DHT22;8601;48.718;8.992;2022-11-15T10:43:35;12.10;99.90
16970;DHT22;8601;48.718;8.992;2022-11-15T10:46:19;12.10;99.90
16970;DHT22;8601;48.718;8.992;2022-11-15T10:48:46;12.10;99.90
16970;DHT22;8601;48.718;8.992;2022-11-15T10:51:21;12.20;99.90
16970;DHT22;8601;48.718;8.992;2022-11-15T10:53:53;12.10;99.90
16970;DHT22;8601;48.718;8.992;2022-11-15T10:56:22;12.10;99.90
16970;DHT22;8601;48.718;8.992;2022-11-15T10:58:53;12.10;99.90
16970;DHT22;8601;48.718;8.992;2022-11-15T11:01:22;12.10;99.90
16970;DHT22;8601;48.718;8.992;2022-11-15T11:03:59;12.10;99.90
16970;DHT22;8601;48.718;8.992;2022-11-15T11:06:26;12.10;99.90
16970;DHT22;8601;48.718;8.992;2022-11-15T11:08:55;12.10;99.90
16970;DHT22;8601;48.718;8.992;2022-11-15T11:11:23;12.10;99.90
16970;DHT22;8601;48.718;8.992;2022-11-15T11:14:11;12.10;99.90
16970;DHT22;8601;48.718;8.992;2022-11-15T11:16:45;12.10;99.90
16970;DHT22;8601;48.718;8.992;2022-11-15T11:19:35;12.10;99.90
16970;DHT22;8601;48.718;8.992;2022-11-15T11:22:12;12.20;99.90
16970;DHT22;8601;48.718;8.992;2022-11-15T11:24:53;12.20;99.90
16970;DHT22;8601;48.718;8.992;2022-11-15T11:27:36;12.30;99.90
16970;DHT22;8601;48.718;8.992;2022-11-15T11:30:14;12.30;99.90
16970;DHT22;8601;48.718;8.992;2022-11-15T11:33:03;12.40;99.90
16970;DHT22;8601;48.718;8.992;2022-11-15T11:35:37;12.40;99.90
16970;DHT22;8601;48.718;8.992;2022-11-15T11:38:17;12.40;99.90
16970;DHT22;8601;48.718;8.992;2022-11-15T11:40:57;12.40;99.90
16970;DHT22;8601;48.718;8.992;2022-11-15T11:43:59;12.50;99.90
16970;DHT22;8601;48.718;8.992;2022-11-15T11:46:43;12.50;99.90
16970;DHT22;8601;48.718;8.992;2022-11-15T11:49:16;12.60;99.90
16970;DHT22;8601;48.718;8.992;2022-11-15T11:51:49;12.80;99.90
16970;DHT22;8601;48.718;8.992;2022-11-15T11:54:22;12.80;99.90
16970;DHT22;8601;48.718;8.992;2022-11-15T11:56:53;12.90;99.90
16970;DHT22;8601;48.718;8.992;2022-11-15T11:59:31;13.00;99.90
16970;DHT22;8601;48.718;8.992;2022-11-15T12:02:11;13.00;99.90
16970;DHT22;8601;48.718;8.992;2022-11-15T12:04:43;13.00;99.90
16970;DHT22;8601;48.718;8.992;2022-11-15T12:07:15;13.00;99.90
16970;DHT22;8601;48.718;8.992;2022-11-15T12:12:55;13.00;99.90
16970;DHT22;8601;48.718;8.992;2022-11-15T12:15:26;13.00;99.90
16970;DHT22;8601;48.718;8.992;2022-11-15T12:17:57;13.10;99.90
16970;DHT22;8601;48.718;8.992;2022-11-15T12:20:29;13.00;99.90
16970;DHT22;8601;48.718;8.992;2022-11-15T12:23:01;13.00;99.90
16970;DHT22;8601;48.718;8.992;2022-11-15T12:25:32;13.00;99.90
16970;DHT22;8601;48.718;8.992;2022-11-15T12:28:06;13.00;99.90
16970;DHT22;8601;48.718;8.992;2022-11-15T12:30:43;13.00;99.90
16970;DHT22;8601;48.718;8.992;2022-11-15T12:33:31;12.90;99.90
16970;DHT22;8601;48.718;8.992;2022-11-15T12:36:33;12.90;99.90
16970;DHT22;8601;48.718;8.992;2022-11-15T12:39:02;12.90;99.90
16970;DHT22;8601;48.718;8.992;2022-11-15T12:41:31;12.90;99.90
16970;DHT22;8601;48.718;8.992;2022-11-15T12:43:58;12.90;99.90
16970;DHT22;8601;48.718;8.992;2022-11-15T12:47:01;12.90;99.90
16970;DHT22;8601;48.718;8.992;2022-11-15T12:49:46;12.90;99.90
16970;DHT22;8601;48.718;8.992;2022-11-15T12:52:14;12.90;99.90
16970;DHT22;8601;48.718;8.992;2022-11-15T12:54:59;12.90;99.90
16970;DHT22;8601;48.718;8.992;2022-11-15T12:57:45;12.90;99.90
16970;DHT22;8601;48.718;8.992;2022-11-15T13:00:37;12.90;99.90
16970;DHT22;8601;48.718;8.992;2022-11-15T13:03:28;12.90;99.90
16970;DHT22;8601;48.718;8.992;2022-11-15T13:06:08;13.00;99.90
16970;DHT22;8601;48.718;8.992;2022-11-15T13:08:40;12.90;99.90
16970;DHT22;8601;48.718;8.992;2022-11-15T13:14:41;13.00;99.90
16970;DHT22;8601;48.718;8.992;2022-11-15T13:17:28;13.00;99.90
16970;DHT22;8601;48.718;8.992;2022-11-15T13:20:00;13.00;99.90
16970;DHT22;8601;48.718;8.992;2022-11-15T13:22:38;13.00;99.90
16970;DHT22;8601;48.718;8.992;2022-11-15T13:25:53;13.00;99.90
16970;DHT22;8601;48.718;8.992;2022-11-15T13:28:33;13.00;99.90
16970;DHT22;8601;48.718;8.992;2022-11-15T13:31:18;13.00;99.90
16970;DHT22;8601;48.718;8.992;2022-11-15T13:33:50;13.00;99.90
16970;DHT22;8601;48.718;8.992;2022-11-15T13:36:20;12.90;99.90
16970;DHT22;8601;48.718;8.992;2022-11-15T13:38:57;12.90;99.90
16970;DHT22;8601;48.718;8.992;2022-11-15T13:41:26;12.90;99.90
16970;DHT22;8601;48.718;8.992;2022-11-15T13:43:54;12.90;99.90
16970;DHT22;8601;48.718;8.992;2022-11-15T13:46:33;12.90;99.90
16970;DHT22;8601;48.718;8.992;2022-11-15T13:49:22;12.80;99.90
16970;DHT22;8601;48.718;8.992;2022-11-15T13:51:58;12.80;99.90
16970;DHT22;8601;48.718;8.992;2022-11-15T13:54:29;12.70;99.90
16970;DHT22;8601;48.718;8.992;2022-11-15T13:57:01;13.30;99.90
16970;DHT22;8601;48.718;8.992;2022-11-15T13:59:52;13.90;99.90
16970;DHT22;8601;48.718;8.992;2022-11-15T14:02:24;13.80;99.90
16970;DHT22;8601;48.718;8.992;2022-11-15T14:05:02;13.40;99.90
16970;DHT22;8601;48.718;8.992;2022-11-15T14:07:30;13.10;99.90
16970;DHT22;8601;48.718;8.992;2022-11-15T14:10:17;13.00;99.90
16970;DHT22;8601;48.718;8.992;2022-11-15T14:13:25;12.90;99.90
16970;DHT22;8601;48.718;8.992;2022-11-15T14:15:53;12.80;99.90
16970;DHT22;8601;48.718;8.992;2022-11-15T14:18:55;13.20;99.90
16970;DHT22;8601;48.718;8.992;2022-11-15T14:21:23;13.00;99.90
16970;DHT22;8601;48.718;8.992;2022-11-15T14:27:26;12.80;99.90
16970;DHT22;8601;48.718;8.992;2022-11-15T14:29:54;12.80;99.90
16970;DHT22;8601;48.718;8.992;2022-11-15T14:32:42;12.70;99.90
16970;DHT22;8601;48.718;8.992;2022-11-15T14:35:14;12.70;99.90
16970;DHT22;8601;48.718;8.992;2022-11-15T14:37:41;12.70;99.90
16970;DHT22;8601;48.718;8.992;2022-11-15T14:40:12;12.60;99.90
16970;DHT22;8601;48.718;8.992;2022-11-15T14:43:09;12.60;99.90
16970;DHT22;8601;48.718;8.992;2022-11-15T14:45:37;12.50;99.90
16970;DHT22;8601;48.718;8.992;2022-11-15T14:48:04;12.50;99.90
16970;DHT22;8601;48.718;8.992;2022-11-15T14:50:44;12.50;99.90
16970;DHT22;8601;48.718;8.992;2022-11-15T14:53:12;12.40;99.90
16970;DHT22;8601;48.718;8.992;2022-11-15T14:55:40;12.50;99.90
16970;DHT22;8601;48.718;8.992;2022-11-15T14:58:17;12.40;99.90
16970;DHT22;8601;48.718;8.992;2022-11-15T15:00:46;12.40;99.90
16970;DHT22;8601;48.718;8.992;2022-11-15T15:03:13;12.40;99.90
16970;DHT22;8601;48.718;8.992;2022-11-15T15:05:43;12.40;99.90
16970;DHT22;8601;48.718;8.992;2022-11-15T15:08:27;12.30;99.90
16970;DHT22;8601;48.718;8.992;2022-11-15T15:11:14;12.30;99.90
16970;DHT22;8601;48.718;8.992;2022-11-15T15:13:44;12.20;99.90
16970;DHT22;8601;48.718;8.992;2022-11-15T15:16:11;12.20;99.90
16970;DHT22;8601;48.718;8.992;2022-11-15T15:18:38;12.10;99.90
16970;DHT22;8601;48.718;8.992;2022-11-15T15:21:19;12.20;99.90
16970;DHT22;8601;48.718;8.992;2022-11-15T15:26:58;12.40;99.90
16970;DHT22;8601;48.718;8.992;2022-11-15T15:29:26;12.30;99.90
16970;DHT22;8601;48.718;8.992;2022-11-15T15:31:57;12.20;99.90
16970;DHT22;8601;48.718;8.992;2022-11-15T15:34:30;12.30;99.90
16970;DHT22;8601;48.718;8.992;2022-11-15T15:37:08;12.20;99.90
16970;DHT22;8601;48.718;8.992;2022-11-15T15:39:37;12.10;99.90
16970;DHT22;8601;48.718;8.992;2022-11-15T15:42:04;12.10;99.90
16970;DHT22;8601;48.718;8.992;2022-11-15T15:44:39;12.10;99.90
16970;DHT22;8601;48.718;8.992;2022-11-15T15:47:10;12.00;99.90
16970;DHT22;8601;48.718;8.992;2022-11-15T15:49:45;12.00;99.90
16970;DHT22;8601;48.718;8.992;2022-11-15T15:52:26;11.90;99.90
16970;DHT22;8601;48.718;8.992;2022-11-15T15:54:54;11.90;99.90
16970;DHT22;8601;48.718;8.992;2022-11-15T15:57:22;11.90;99.90
16970;DHT22;8601;48.718;8.992;2022-11-15T15:59:50;11.90;99.90
16970;DHT22;8601;48.718;8.992;2022-11-15T16:02:17;12.20;99.90
16970;DHT22;8601;48.718;8.992;2022-11-15T16:04:51;12.50;99.90
16970;DHT22;8601;48.718;8.992;2022-11-15T16:07:43;12.30;99.90
16970;DHT22;8601;48.718;8.992;2022-11-15T16:10:18;12.10;99.90
16970;DHT22;8601;48.718;8.992;2022-11-15T16:16:08;12.00;99.90
16970;DHT22;8601;48.718;8.992;2022-11-15T16:18:36;11.90;99.90
16970;DHT22;8601;48.718;8.992;2022-11-15T16:21:03;11.80;99.90
16970;DHT22;8601;48.718;8.992;2022-11-15T16:23:30;11.70;99.90
16970;DHT22;8601;48.718;8.992;2022-11-15T16:25:57;11.80;99.90
16970;DHT22;8601;48.718;8.992;2022-11-15T16:28:26;11.70;99.90
16970;DHT22;8601;48.718;8.992;2022-11-15T16:31:08;11.70;99.90
16970;DHT22;8601;48.718;8.992;2022-11-15T16:33:37;11.70;99.90
16970;DHT22;8601;48.718;8.992;2022-11-15T16:36:22;11.70;99.90
16970;DHT22;8601;48.718;8.992;2022-11-15T16:38:52;11.70;99.90
16970;DHT22;8601;48.718;8.992;2022-11-15T16:41:19;11.70;99.90
16970;DHT22;8601;48.718;8.992;2022-11-15T16:43:46;11.60;99.90
16970;DHT22;8601;48.718;8.992;2022-11-15T16:46:16;11.60;99.90
16970;DHT22;8601;48.718;8.992;2022-11-15T16:49:02;11.50;99.90